sensor_id;sensor_type;location;lat;lon;timestamp;temperature;humidity
26503;DHT22;14177;51.520;6.764;2022-08-19T00:02:02;20.60;84.20
26503;DHT22;14177;51.520;6.764;2022-08-19T00:04:32;20.60;84.60
26503;DHT22;14177;51.520;6.764;2022-08-19T00:07:05;20.50;85.00
26503;DHT22;14177;51.520;6.764;2022-08-19T00:09:33;20.40;85.40
26503;DHT22;14177;51.520;6.764;2022-08-19T00:12:00;20.40;85.90
26503;DHT22;14177;51.520;6.764;2022-08-19T00:14:28;20.40;86.10
26503;DHT22;14177;51.520;6.764;2022-08-19T00:16:58;20.30;86.10
26503;DHT22;14177;51.520;6.764;2022-08-19T00:19:25;20.30;86.00
26503;DHT22;14177;51.520;6.764;2022-08-19T00:21:52;20.20;86.20
26503;DHT22;14177;51.520;6.764;2022-08-19T00:24:20;20.20;86.50
26503;DHT22;14177;51.520;6.764;2022-08-19T00:26:47;20.20;86.70
26503;DHT22;14177;51.520;6.764;2022-08-19T00:29:16;20.10;86.80
26503;DHT22;14177;51.520;6.764;2022-08-19T00:31:45;20.10;86.60
26503;DHT22;14177;51.520;6.764;2022-08-19T00:34:14;20.10;87.30
26503;DHT22;14177;51.520;6.764;2022-08-19T00:36:42;20.10;86.70
26503;DHT22;14177;51.520;6.764;2022-08-19T00:39:10;20.10;86.90
26503;DHT22;14177;51.520;6.764;2022-08-19T00:41:38;20.00;86.80
26503;DHT22;14177;51.520;6.764;2022-08-19T00:46:39;20.00;87.00
26503;DHT22;14177;51.520;6.764;2022-08-19T00:49:23;20.00;87.10
26503;DHT22;14177;51.520;6.764;2022-08-19T00:52:12;20.00;87.20
26503;DHT22;14177;51.520;6.764;2022-08-19T00:54:42;19.90;87.30
26503;DHT22;14177;51.520;6.764;2022-08-19T00:57:17;19.90;87.30
26503;DHT22;14177;51.520;6.764;2022-08-19T00:59:52;19.90;87.50
26503;DHT22;14177;51.520;6.764;2022-08-19T01:02:29;19.90;87.70
26503;DHT22;14177;51.520;6.764;2022-08-19T01:04:57;19.80;87.70
26503;DHT22;14177;51.520;6.764;2022-08-19T01:07:26;19.80;87.70
26503;DHT22;14177;51.520;6.764;2022-08-19T01:10:02;19.80;87.80
26503;DHT22;14177;51.520;6.764;2022-08-19T01:12:30;19.70;87.90
26503;DHT22;14177;51.520;6.764;2022-08-19T01:14:58;19.70;88.00
26503;DHT22;14177;51.520;6.764;2022-08-19T01:17:26;19.70;88.20
26503;DHT22;14177;51.520;6.764;2022-08-19T01:19:54;19.70;88.30
26503;DHT22;14177;51.520;6.764;2022-08-19T01:24:58;19.60;88.60
26503;DHT22;14177;51.520;6.764;2022-08-19T01:27:26;19.60;88.50
26503;DHT22;14177;51.520;6.764;2022-08-19T01:30:06;19.60;88.50
26503;DHT22;14177;51.520;6.764;2022-08-19T01:32:34;19.50;88.40
26503;DHT22;14177;51.520;6.764;2022-08-19T01:35:02;19.50;88.50
26503;DHT22;14177;51.520;6.764;2022-08-19T01:37:52;19.50;88.90
26503;DHT22;14177;51.520;6.764;2022-08-19T01:40:23;19.40;89.30
26503;DHT22;14177;51.520;6.764;2022-08-19T01:42:53;19.40;89.30
26503;DHT22;14177;51.520;6.764;2022-08-19T01:45:23;19.40;89.20
26503;DHT22;14177;51.520;6.764;2022-08-19T01:47:52;19.40;89.10
26503;DHT22;14177;51.520;6.764;2022-08-19T01:50:29;19.40;89.30
26503;DHT22;14177;51.520;6.764;2022-08-19T01:52:57;19.30;89.50
26503;DHT22;14177;51.520;6.764;2022-08-19T01:55:32;19.30;89.60
26503;DHT22;14177;51.520;6.764;2022-08-19T01:58:13;19.30;89.50
26503;DHT22;14177;51.520;6.764;2022-08-19T02:00:45;19.20;89.40
26503;DHT22;14177;51.520;6.764;2022-08-19T02:03:13;19.20;89.50
26503;DHT22;14177;51.520;6.764;2022-08-19T02:05:41;19.20;89.80
26503;DHT22;14177;51.520;6.764;2022-08-19T02:08:10;19.10;90.00
26503;DHT22;14177;51.520;6.764;2022-08-19T02:10:43;19.10;90.20
26503;DHT22;14177;51.520;6.764;2022-08-19T02:13:11;19.10;90.10
26503;DHT22;14177;51.520;6.764;2022-08-19T02:15:40;19.00;90.20
26503;DHT22;14177;51.520;6.764;2022-08-19T02:18:07;19.00;90.30
26503;DHT22;14177;51.520;6.764;2022-08-19T02:20:36;19.00;90.20
26503;DHT22;14177;51.520;6.764;2022-08-19T02:23:06;18.90;90.30
26503;DHT22;14177;51.520;6.764;2022-08-19T02:25:45;18.90;90.30
26503;DHT22;14177;51.520;6.764;2022-08-19T02:28:13;18.90;90.30
26503;DHT22;14177;51.520;6.764;2022-08-19T02:30:46;18.80;90.50
26503;DHT22;14177;51.520;6.764;2022-08-19T02:33:15;18.80;90.50
26503;DHT22;14177;51.520;6.764;2022-08-19T02:35:44;18.80;90.50
26503;DHT22;14177;51.520;6.764;2022-08-19T02:38:13;18.80;90.60
26503;DHT22;14177;51.520;6.764;2022-08-19T02:40:57;18.80;90.60
26503;DHT22;14177;51.520;6.764;2022-08-19T02:43:29;18.80;90.60
26503;DHT22;14177;51.520;6.764;2022-08-19T02:46:00;18.70;90.50
26503;DHT22;14177;51.520;6.764;2022-08-19T02:48:28;18.70;90.50
26503;DHT22;14177;51.520;6.764;2022-08-19T02:50:55;18.70;90.60
26503;DHT22;14177;51.520;6.764;2022-08-19T02:53:24;18.70;90.60
26503;DHT22;14177;51.520;6.764;2022-08-19T02:55:53;18.70;90.60
26503;DHT22;14177;51.520;6.764;2022-08-19T02:58:21;18.70;90.60
26503;DHT22;14177;51.520;6.764;2022-08-19T03:00:54;18.70;90.60
26503;DHT22;14177;51.520;6.764;2022-08-19T03:03:23;18.70;90.60
26503;DHT22;14177;51.520;6.764;2022-08-19T03:05:50;18.70;90.50
26503;DHT22;14177;51.520;6.764;2022-08-19T03:08:24;18.70;90.40
26503;DHT22;14177;51.520;6.764;2022-08-19T03:10:52;18.60;90.50
26503;DHT22;14177;51.520;6.764;2022-08-19T03:13:20;18.60;90.60
26503;DHT22;14177;51.520;6.764;2022-08-19T03:15:47;18.60;90.60
26503;DHT22;14177;51.520;6.764;2022-08-19T03:18:15;18.60;90.70
26503;DHT22;14177;51.520;6.764;2022-08-19T03:20:45;18.60;90.70
26503;DHT22;14177;51.520;6.764;2022-08-19T03:23:15;18.60;90.70
26503;DHT22;14177;51.520;6.764;2022-08-19T03:25:45;18.50;90.80
26503;DHT22;14177;51.520;6.764;2022-08-19T03:28:34;18.50;90.80
26503;DHT22;14177;51.520;6.764;2022-08-19T03:31:04;18.50;90.80
26503;DHT22;14177;51.520;6.764;2022-08-19T03:33:53;18.50;90.90
26503;DHT22;14177;51.520;6.764;2022-08-19T03:36:25;18.40;91.00
26503;DHT22;14177;51.520;6.764;2022-08-19T03:38:58;18.40;91.00
26503;DHT22;14177;51.520;6.764;2022-08-19T03:41:32;18.40;91.10
26503;DHT22;14177;51.520;6.764;2022-08-19T03:44:12;18.40;91.10
26503;DHT22;14177;51.520;6.764;2022-08-19T03:46:45;18.40;91.10
26503;DHT22;14177;51.520;6.764;2022-08-19T03:49:14;18.40;91.00
26503;DHT22;14177;51.520;6.764;2022-08-19T03:51:45;18.40;90.90
26503;DHT22;14177;51.520;6.764;2022-08-19T03:54:14;18.40;90.90
26503;DHT22;14177;51.520;6.764;2022-08-19T03:56:44;18.40;91.00
26503;DHT22;14177;51.520;6.764;2022-08-19T03:59:17;18.40;90.90
26503;DHT22;14177;51.520;6.764;2022-08-19T04:01:54;18.40;91.00
26503;DHT22;14177;51.520;6.764;2022-08-19T04:04:23;18.30;91.00
26503;DHT22;14177;51.520;6.764;2022-08-19T04:06:55;18.30;91.00
26503;DHT22;14177;51.520;6.764;2022-08-19T04:09:22;18.40;91.00
26503;DHT22;14177;51.520;6.764;2022-08-19T04:11:52;18.30;91.00
26503;DHT22;14177;51.520;6.764;2022-08-19T04:14:29;18.30;91.00
26503;DHT22;14177;51.520;6.764;2022-08-19T04:17:01;18.30;91.10
26503;DHT22;14177;51.520;6.764;2022-08-19T04:19:32;18.30;91.00
26503;DHT22;14177;51.520;6.764;2022-08-19T04:22:01;18.30;90.90
26503;DHT22;14177;51.520;6.764;2022-08-19T04:24:29;18.20;91.00
26503;DHT22;14177;51.520;6.764;2022-08-19T04:26:56;18.20;90.90
26503;DHT22;14177;51.520;6.764;2022-08-19T04:29:25;18.20;90.90
26503;DHT22;14177;51.520;6.764;2022-08-19T04:31:55;18.20;91.00
26503;DHT22;14177;51.520;6.764;2022-08-19T04:34:25;18.20;91.00
26503;DHT22;14177;51.520;6.764;2022-08-19T04:36:56;18.20;91.10
26503;DHT22;14177;51.520;6.764;2022-08-19T04:39:27;18.20;91.00
26503;DHT22;14177;51.520;6.764;2022-08-19T04:42:16;18.20;91.00
26503;DHT22;14177;51.520;6.764;2022-08-19T04:45:04;18.20;91.10
26503;DHT22;14177;51.520;6.764;2022-08-19T04:47:38;18.20;91.10
26503;DHT22;14177;51.520;6.764;2022-08-19T04:50:24;18.30;91.30
26503;DHT22;14177;51.520;6.764;2022-08-19T04:52:52;18.30;91.00
26503;DHT22;14177;51.520;6.764;2022-08-19T04:55:20;18.30;91.10
26503;DHT22;14177;51.520;6.764;2022-08-19T04:57:47;18.30;91.20
26503;DHT22;14177;51.520;6.764;2022-08-19T05:00:14;18.30;91.20
26503;DHT22;14177;51.520;6.764;2022-08-19T05:02:41;18.40;91.30
26503;DHT22;14177;51.520;6.764;2022-08-19T05:05:08;18.40;91.20
26503;DHT22;14177;51.520;6.764;2022-08-19T05:07:36;18.40;91.10
26503;DHT22;14177;51.520;6.764;2022-08-19T05:10:05;18.50;91.10
26503;DHT22;14177;51.520;6.764;2022-08-19T05:12:33;18.50;91.10
26503;DHT22;14177;51.520;6.764;2022-08-19T05:15:01;18.50;91.20
26503;DHT22;14177;51.520;6.764;2022-08-19T05:17:29;18.50;91.00
26503;DHT22;14177;51.520;6.764;2022-08-19T05:20:05;18.60;91.10
26503;DHT22;14177;51.520;6.764;2022-08-19T05:22:51;18.60;91.00
26503;DHT22;14177;51.520;6.764;2022-08-19T05:25:20;18.70;91.10
26503;DHT22;14177;51.520;6.764;2022-08-19T05:27:48;18.70;91.00
26503;DHT22;14177;51.520;6.764;2022-08-19T05:30:15;18.70;91.10
26503;DHT22;14177;51.520;6.764;2022-08-19T05:32:44;18.80;91.10
26503;DHT22;14177;51.520;6.764;2022-08-19T05:35:11;18.80;91.10
26503;DHT22;14177;51.520;6.764;2022-08-19T05:37:39;18.80;91.00
26503;DHT22;14177;51.520;6.764;2022-08-19T05:40:09;18.90;91.10
26503;DHT22;14177;51.520;6.764;2022-08-19T05:42:37;18.90;91.10
26503;DHT22;14177;51.520;6.764;2022-08-19T05:45:05;19.00;91.10
26503;DHT22;14177;51.520;6.764;2022-08-19T05:47:32;19.10;91.00
26503;DHT22;14177;51.520;6.764;2022-08-19T05:49:59;19.20;91.20
26503;DHT22;14177;51.520;6.764;2022-08-19T05:52:31;19.30;91.30
26503;DHT22;14177;51.520;6.764;2022-08-19T05:54:59;19.40;91.30
26503;DHT22;14177;51.520;6.764;2022-08-19T05:57:26;19.50;91.40
26503;DHT22;14177;51.520;6.764;2022-08-19T05:59:55;19.50;91.30
26503;DHT22;14177;51.520;6.764;2022-08-19T06:02:26;19.60;91.40
26503;DHT22;14177;51.520;6.764;2022-08-19T06:04:53;19.70;91.40
26503;DHT22;14177;51.520;6.764;2022-08-19T06:07:20;19.70;91.40
26503;DHT22;14177;51.520;6.764;2022-08-19T06:09:48;19.80;91.40
26503;DHT22;14177;51.520;6.764;2022-08-19T06:12:30;19.90;91.30
26503;DHT22;14177;51.520;6.764;2022-08-19T06:15:10;20.00;91.00
26503;DHT22;14177;51.520;6.764;2022-08-19T06:17:40;20.10;91.00
26503;DHT22;14177;51.520;6.764;2022-08-19T06:20:13;20.20;91.00
26503;DHT22;14177;51.520;6.764;2022-08-19T06:22:43;20.30;91.10
26503;DHT22;14177;51.520;6.764;2022-08-19T06:25:14;20.40;91.10
26503;DHT22;14177;51.520;6.764;2022-08-19T06:27:41;20.50;91.00
26503;DHT22;14177;51.520;6.764;2022-08-19T06:30:29;20.60;90.90
26503;DHT22;14177;51.520;6.764;2022-08-19T06:32:56;20.60;90.60
26503;DHT22;14177;51.520;6.764;2022-08-19T06:35:23;20.80;90.70
26503;DHT22;14177;51.520;6.764;2022-08-19T06:37:50;20.80;90.70
26503;DHT22;14177;51.520;6.764;2022-08-19T06:40:17;20.90;90.60
26503;DHT22;14177;51.520;6.764;2022-08-19T06:42:44;20.90;90.50
26503;DHT22;14177;51.520;6.764;2022-08-19T06:45:22;21.00;90.50
26503;DHT22;14177;51.520;6.764;2022-08-19T06:47:50;21.10;90.20
26503;DHT22;14177;51.520;6.764;2022-08-19T06:50:25;21.10;90.00
26503;DHT22;14177;51.520;6.764;2022-08-19T06:52:52;21.20;90.00
26503;DHT22;14177;51.520;6.764;2022-08-19T06:55:21;21.20;90.00
26503;DHT22;14177;51.520;6.764;2022-08-19T06:57:48;21.30;90.10
26503;DHT22;14177;51.520;6.764;2022-08-19T07:00:17;21.30;89.60
26503;DHT22;14177;51.520;6.764;2022-08-19T07:02:44;21.30;89.70
26503;DHT22;14177;51.520;6.764;2022-08-19T07:05:21;21.30;89.20
26503;DHT22;14177;51.520;6.764;2022-08-19T07:07:49;21.30;89.30
26503;DHT22;14177;51.520;6.764;2022-08-19T07:10:17;21.30;89.40
26503;DHT22;14177;51.520;6.764;2022-08-19T07:12:44;21.30;89.20
26503;DHT22;14177;51.520;6.764;2022-08-19T07:15:12;21.30;89.40
26503;DHT22;14177;51.520;6.764;2022-08-19T07:17:39;21.30;90.00
26503;DHT22;14177;51.520;6.764;2022-08-19T07:20:09;21.50;89.70
26503;DHT22;14177;51.520;6.764;2022-08-19T07:22:37;21.60;89.10
26503;DHT22;14177;51.520;6.764;2022-08-19T07:25:08;21.70;88.80
26503;DHT22;14177;51.520;6.764;2022-08-19T07:27:36;21.90;88.20
26503;DHT22;14177;51.520;6.764;2022-08-19T07:30:07;21.90;88.40
26503;DHT22;14177;51.520;6.764;2022-08-19T07:32:38;22.00;88.00
26503;DHT22;14177;51.520;6.764;2022-08-19T07:35:06;22.10;87.70
26503;DHT22;14177;51.520;6.764;2022-08-19T07:37:34;22.20;87.10
26503;DHT22;14177;51.520;6.764;2022-08-19T07:40:04;22.30;87.00
26503;DHT22;14177;51.520;6.764;2022-08-19T07:42:32;22.40;86.60
26503;DHT22;14177;51.520;6.764;2022-08-19T07:44:59;22.40;86.60
26503;DHT22;14177;51.520;6.764;2022-08-19T07:47:26;22.60;85.70
26503;DHT22;14177;51.520;6.764;2022-08-19T07:50:15;22.80;85.40
26503;DHT22;14177;51.520;6.764;2022-08-19T07:52:46;23.10;84.40
26503;DHT22;14177;51.520;6.764;2022-08-19T07:55:19;23.30;83.90
26503;DHT22;14177;51.520;6.764;2022-08-19T07:58:09;23.60;81.60
26503;DHT22;14177;51.520;6.764;2022-08-19T08:00:42;23.80;80.30
26503;DHT22;14177;51.520;6.764;2022-08-19T08:03:11;23.90;79.60
26503;DHT22;14177;51.520;6.764;2022-08-19T08:05:38;24.00;79.00
26503;DHT22;14177;51.520;6.764;2022-08-19T08:08:24;23.90;78.80
26503;DHT22;14177;51.520;6.764;2022-08-19T08:11:15;23.70;79.20
26503;DHT22;14177;51.520;6.764;2022-08-19T08:13:47;23.70;79.80
26503;DHT22;14177;51.520;6.764;2022-08-19T08:16:31;23.70;80.10
26503;DHT22;14177;51.520;6.764;2022-08-19T08:19:13;23.80;79.00
26503;DHT22;14177;51.520;6.764;2022-08-19T08:21:52;23.90;79.30
26503;DHT22;14177;51.520;6.764;2022-08-19T08:24:24;24.00;79.00
26503;DHT22;14177;51.520;6.764;2022-08-19T08:27:00;24.00;78.50
26503;DHT22;14177;51.520;6.764;2022-08-19T08:29:28;24.20;78.30
26503;DHT22;14177;51.520;6.764;2022-08-19T08:32:00;24.60;78.20
26503;DHT22;14177;51.520;6.764;2022-08-19T08:34:28;24.80;75.80
26503;DHT22;14177;51.520;6.764;2022-08-19T08:36:55;24.80;73.90
26503;DHT22;14177;51.520;6.764;2022-08-19T08:39:22;24.70;74.10
26503;DHT22;14177;51.520;6.764;2022-08-19T08:41:51;24.60;74.00
26503;DHT22;14177;51.520;6.764;2022-08-19T08:44:31;24.50;74.30
26503;DHT22;14177;51.520;6.764;2022-08-19T08:47:13;24.40;74.60
26503;DHT22;14177;51.520;6.764;2022-08-19T08:49:59;24.30;74.80
26503;DHT22;14177;51.520;6.764;2022-08-19T08:52:46;24.40;74.60
26503;DHT22;14177;51.520;6.764;2022-08-19T08:55:21;24.60;74.80
26503;DHT22;14177;51.520;6.764;2022-08-19T08:57:55;24.70;73.90
26503;DHT22;14177;51.520;6.764;2022-08-19T09:00:32;24.90;75.30
26503;DHT22;14177;51.520;6.764;2022-08-19T09:03:02;25.10;74.00
26503;DHT22;14177;51.520;6.764;2022-08-19T09:17:22;25.40;70.30
26503;DHT22;14177;51.520;6.764;2022-08-19T09:19:56;25.60;69.60
26503;DHT22;14177;51.520;6.764;2022-08-19T09:22:31;25.90;70.80
26503;DHT22;14177;51.520;6.764;2022-08-19T09:24:58;26.30;69.60
26503;DHT22;14177;51.520;6.764;2022-08-19T09:27:26;26.50;67.80
26503;DHT22;14177;51.520;6.764;2022-08-19T09:30:11;26.80;66.50
26503;DHT22;14177;51.520;6.764;2022-08-19T09:32:44;27.10;65.70
26503;DHT22;14177;51.520;6.764;2022-08-19T09:35:13;27.20;65.90
26503;DHT22;14177;51.520;6.764;2022-08-19T09:37:42;27.30;65.20
26503;DHT22;14177;51.520;6.764;2022-08-19T09:40:11;27.40;65.60
26503;DHT22;14177;51.520;6.764;2022-08-19T09:42:39;27.40;66.00
26503;DHT22;14177;51.520;6.764;2022-08-19T09:45:19;27.50;64.70
26503;DHT22;14177;51.520;6.764;2022-08-19T09:47:50;27.50;64.70
26503;DHT22;14177;51.520;6.764;2022-08-19T09:50:21;27.50;64.80
26503;DHT22;14177;51.520;6.764;2022-08-19T09:52:50;27.50;64.70
26503;DHT22;14177;51.520;6.764;2022-08-19T09:55:25;27.60;64.80
26503;DHT22;14177;51.520;6.764;2022-08-19T09:58:01;27.60;64.80
26503;DHT22;14177;51.520;6.764;2022-08-19T10:00:29;27.70;63.30
26503;DHT22;14177;51.520;6.764;2022-08-19T10:02:57;27.60;63.60
26503;DHT22;14177;51.520;6.764;2022-08-19T10:05:24;27.40;64.70
26503;DHT22;14177;51.520;6.764;2022-08-19T10:08:10;27.50;65.00
26503;DHT22;14177;51.520;6.764;2022-08-19T10:10:41;27.90;63.10
26503;DHT22;14177;51.520;6.764;2022-08-19T10:13:15;27.90;62.90
26503;DHT22;14177;51.520;6.764;2022-08-19T10:15:44;27.80;62.40
26503;DHT22;14177;51.520;6.764;2022-08-19T10:18:15;27.90;64.30
26503;DHT22;14177;51.520;6.764;2022-08-19T10:20:47;28.20;63.30
26503;DHT22;14177;51.520;6.764;2022-08-19T10:23:19;28.30;62.40
26503;DHT22;14177;51.520;6.764;2022-08-19T10:25:48;28.10;61.70
26503;DHT22;14177;51.520;6.764;2022-08-19T10:28:16;27.90;62.70
26503;DHT22;14177;51.520;6.764;2022-08-19T10:30:45;27.70;62.40
26503;DHT22;14177;51.520;6.764;2022-08-19T10:33:13;27.40;63.00
26503;DHT22;14177;51.520;6.764;2022-08-19T10:36:04;27.40;63.10
26503;DHT22;14177;51.520;6.764;2022-08-19T10:38:34;27.40;62.40
26503;DHT22;14177;51.520;6.764;2022-08-19T10:41:09;27.30;63.60
26503;DHT22;14177;51.520;6.764;2022-08-19T10:43:41;27.30;62.60
26503;DHT22;14177;51.520;6.764;2022-08-19T10:46:11;27.10;63.60
26503;DHT22;14177;51.520;6.764;2022-08-19T10:48:43;27.40;63.40
26503;DHT22;14177;51.520;6.764;2022-08-19T10:51:11;27.70;63.60
26503;DHT22;14177;51.520;6.764;2022-08-19T10:53:57;27.90;62.30
26503;DHT22;14177;51.520;6.764;2022-08-19T10:56:25;28.20;60.80
26503;DHT22;14177;51.520;6.764;2022-08-19T10:59:15;28.20;60.50
26503;DHT22;14177;51.520;6.764;2022-08-19T11:01:45;27.90;60.40
26503;DHT22;14177;51.520;6.764;2022-08-19T11:04:13;27.60;61.90
26503;DHT22;14177;51.520;6.764;2022-08-19T11:06:42;28.00;61.20
26503;DHT22;14177;51.520;6.764;2022-08-19T11:09:18;28.10;60.00
26503;DHT22;14177;51.520;6.764;2022-08-19T11:12:07;28.20;59.40
26503;DHT22;14177;51.520;6.764;2022-08-19T11:14:37;28.50;59.40
26503;DHT22;14177;51.520;6.764;2022-08-19T11:17:05;29.00;59.50
26503;DHT22;14177;51.520;6.764;2022-08-19T11:19:35;29.50;57.80
26503;DHT22;14177;51.520;6.764;2022-08-19T11:22:03;29.80;57.30
26503;DHT22;14177;51.520;6.764;2022-08-19T11:24:31;29.60;55.50
26503;DHT22;14177;51.520;6.764;2022-08-19T11:27:08;29.10;54.40
26503;DHT22;14177;51.520;6.764;2022-08-19T11:29:38;28.70;55.00
26503;DHT22;14177;51.520;6.764;2022-08-19T11:32:09;28.70;55.70
26503;DHT22;14177;51.520;6.764;2022-08-19T11:34:38;28.90;55.90
26503;DHT22;14177;51.520;6.764;2022-08-19T11:37:05;29.10;55.20
26503;DHT22;14177;51.520;6.764;2022-08-19T11:39:34;29.10;54.80
26503;DHT22;14177;51.520;6.764;2022-08-19T11:42:07;28.80;54.90
26503;DHT22;14177;51.520;6.764;2022-08-19T11:45:14;28.80;54.40
26503;DHT22;14177;51.520;6.764;2022-08-19T11:48:10;28.80;55.10
26503;DHT22;14177;51.520;6.764;2022-08-19T11:50:39;29.20;55.70
26503;DHT22;14177;51.520;6.764;2022-08-19T11:53:09;29.80;53.30
26503;DHT22;14177;51.520;6.764;2022-08-19T11:55:39;30.10;52.90
26503;DHT22;14177;51.520;6.764;2022-08-19T11:58:26;30.50;51.40
26503;DHT22;14177;51.520;6.764;2022-08-19T12:00:53;31.00;51.00
26503;DHT22;14177;51.520;6.764;2022-08-19T12:03:21;31.30;47.80
26503;DHT22;14177;51.520;6.764;2022-08-19T12:05:51;31.30;49.10
26503;DHT22;14177;51.520;6.764;2022-08-19T12:08:18;31.60;48.90
26503;DHT22;14177;51.520;6.764;2022-08-19T12:10:45;31.90;47.60
26503;DHT22;14177;51.520;6.764;2022-08-19T12:13:15;31.70;48.00
26503;DHT22;14177;51.520;6.764;2022-08-19T12:15:46;31.70;47.80
26503;DHT22;14177;51.520;6.764;2022-08-19T12:18:16;31.40;47.30
26503;DHT22;14177;51.520;6.764;2022-08-19T12:20:43;31.40;47.50
26503;DHT22;14177;51.520;6.764;2022-08-19T12:27:10;31.60;48.50
26503;DHT22;14177;51.520;6.764;2022-08-19T12:30:15;32.10;47.00
26503;DHT22;14177;51.520;6.764;2022-08-19T12:33:10;32.30;45.30
26503;DHT22;14177;51.520;6.764;2022-08-19T12:35:43;32.30;44.80
26503;DHT22;14177;51.520;6.764;2022-08-19T12:38:22;32.50;45.20
26503;DHT22;14177;51.520;6.764;2022-08-19T12:40:50;32.60;45.10
26503;DHT22;14177;51.520;6.764;2022-08-19T12:43:22;32.80;44.60
26503;DHT22;14177;51.520;6.764;2022-08-19T12:45:50;32.80;43.50
26503;DHT22;14177;51.520;6.764;2022-08-19T12:48:17;32.70;43.00
26503;DHT22;14177;51.520;6.764;2022-08-19T12:51:00;32.90;43.50
26503;DHT22;14177;51.520;6.764;2022-08-19T12:53:28;32.80;43.40
26503;DHT22;14177;51.520;6.764;2022-08-19T12:55:56;32.80;42.80
26503;DHT22;14177;51.520;6.764;2022-08-19T12:58:24;32.40;44.30
26503;DHT22;14177;51.520;6.764;2022-08-19T13:00:53;32.40;45.20
26503;DHT22;14177;51.520;6.764;2022-08-19T13:03:23;32.50;45.10
26503;DHT22;14177;51.520;6.764;2022-08-19T13:05:55;32.70;45.00
26503;DHT22;14177;51.520;6.764;2022-08-19T13:08:23;32.90;43.60
26503;DHT22;14177;51.520;6.764;2022-08-19T13:10:52;33.00;43.10
26503;DHT22;14177;51.520;6.764;2022-08-19T13:13:20;32.80;43.30
26503;DHT22;14177;51.520;6.764;2022-08-19T13:15:47;32.40;44.50
26503;DHT22;14177;51.520;6.764;2022-08-19T13:18:13;32.40;43.30
26503;DHT22;14177;51.520;6.764;2022-08-19T13:20:41;32.40;43.10
26503;DHT22;14177;51.520;6.764;2022-08-19T13:23:18;32.60;42.60
26503;DHT22;14177;51.520;6.764;2022-08-19T13:25:55;32.60;42.10
26503;DHT22;14177;51.520;6.764;2022-08-19T13:28:24;32.50;42.60
26503;DHT22;14177;51.520;6.764;2022-08-19T13:30:55;32.40;42.60
26503;DHT22;14177;51.520;6.764;2022-08-19T13:33:40;32.30;42.40
26503;DHT22;14177;51.520;6.764;2022-08-19T13:36:07;32.40;42.80
26503;DHT22;14177;51.520;6.764;2022-08-19T13:38:39;32.40;43.20
26503;DHT22;14177;51.520;6.764;2022-08-19T13:41:06;32.40;42.90
26503;DHT22;14177;51.520;6.764;2022-08-19T13:43:40;32.10;43.00
26503;DHT22;14177;51.520;6.764;2022-08-19T13:46:10;32.10;43.30
26503;DHT22;14177;51.520;6.764;2022-08-19T13:48:42;32.20;43.80
26503;DHT22;14177;51.520;6.764;2022-08-19T13:51:09;32.10;43.30
26503;DHT22;14177;51.520;6.764;2022-08-19T13:53:38;32.30;43.40
26503;DHT22;14177;51.520;6.764;2022-08-19T13:56:08;32.50;43.40
26503;DHT22;14177;51.520;6.764;2022-08-19T13:58:38;32.40;43.10
26503;DHT22;14177;51.520;6.764;2022-08-19T14:01:06;32.30;43.70
26503;DHT22;14177;51.520;6.764;2022-08-19T14:03:36;32.20;44.00
26503;DHT22;14177;51.520;6.764;2022-08-19T14:06:04;32.00;44.70
26503;DHT22;14177;51.520;6.764;2022-08-19T14:08:31;32.10;45.20
26503;DHT22;14177;51.520;6.764;2022-08-19T14:10:59;32.20;44.50
26503;DHT22;14177;51.520;6.764;2022-08-19T14:13:32;32.10;45.30
26503;DHT22;14177;51.520;6.764;2022-08-19T14:16:00;32.20;44.90
26503;DHT22;14177;51.520;6.764;2022-08-19T14:18:27;32.00;46.20
26503;DHT22;14177;51.520;6.764;2022-08-19T14:20:56;31.90;45.50
26503;DHT22;14177;51.520;6.764;2022-08-19T14:23:29;32.10;46.00
26503;DHT22;14177;51.520;6.764;2022-08-19T14:26:09;32.00;45.40
26503;DHT22;14177;51.520;6.764;2022-08-19T14:28:40;32.00;45.20
26503;DHT22;14177;51.520;6.764;2022-08-19T14:31:10;31.80;46.00
26503;DHT22;14177;51.520;6.764;2022-08-19T14:33:46;31.70;45.40
26503;DHT22;14177;51.520;6.764;2022-08-19T14:36:14;31.50;45.60
26503;DHT22;14177;51.520;6.764;2022-08-19T14:38:41;31.30;45.90
26503;DHT22;14177;51.520;6.764;2022-08-19T14:43:47;31.50;45.20
26503;DHT22;14177;51.520;6.764;2022-08-19T14:46:19;31.60;43.40
26503;DHT22;14177;51.520;6.764;2022-08-19T14:48:48;31.30;44.00
26503;DHT22;14177;51.520;6.764;2022-08-19T14:51:20;31.40;44.00
26503;DHT22;14177;51.520;6.764;2022-08-19T14:53:48;31.50;45.20
26503;DHT22;14177;51.520;6.764;2022-08-19T14:56:20;31.60;45.10
26503;DHT22;14177;51.520;6.764;2022-08-19T14:58:49;31.90;44.90
26503;DHT22;14177;51.520;6.764;2022-08-19T15:01:19;31.90;45.00
26503;DHT22;14177;51.520;6.764;2022-08-19T15:03:48;31.90;45.40
26503;DHT22;14177;51.520;6.764;2022-08-19T15:06:16;32.10;44.20
26503;DHT22;14177;51.520;6.764;2022-08-19T15:08:43;31.90;44.00
26503;DHT22;14177;51.520;6.764;2022-08-19T15:11:14;31.60;44.90
26503;DHT22;14177;51.520;6.764;2022-08-19T15:13:44;31.50;45.60
26503;DHT22;14177;51.520;6.764;2022-08-19T15:16:14;31.70;45.90
26503;DHT22;14177;51.520;6.764;2022-08-19T15:18:45;31.90;45.70
26503;DHT22;14177;51.520;6.764;2022-08-19T15:21:14;31.70;45.30
26503;DHT22;14177;51.520;6.764;2022-08-19T15:23:55;31.70;46.00
26503;DHT22;14177;51.520;6.764;2022-08-19T15:26:30;31.60;44.60
26503;DHT22;14177;51.520;6.764;2022-08-19T15:29:55;31.60;44.90
26503;DHT22;14177;51.520;6.764;2022-08-19T15:32:30;31.10;44.60
26503;DHT22;14177;51.520;6.764;2022-08-19T15:34:57;30.80;45.50
26503;DHT22;14177;51.520;6.764;2022-08-19T15:37:30;30.90;45.90
26503;DHT22;14177;51.520;6.764;2022-08-19T15:39:57;31.00;46.00
26503;DHT22;14177;51.520;6.764;2022-08-19T15:42:25;31.30;45.90
26503;DHT22;14177;51.520;6.764;2022-08-19T15:44:56;31.50;45.60
26503;DHT22;14177;51.520;6.764;2022-08-19T15:47:28;31.60;45.70
26503;DHT22;14177;51.520;6.764;2022-08-19T15:50:20;31.70;45.20
26503;DHT22;14177;51.520;6.764;2022-08-19T15:55:22;31.80;44.90
26503;DHT22;14177;51.520;6.764;2022-08-19T15:58:05;31.50;45.40
26503;DHT22;14177;51.520;6.764;2022-08-19T16:01:04;31.30;45.80
26503;DHT22;14177;51.520;6.764;2022-08-19T16:03:54;31.20;45.40
26503;DHT22;14177;51.520;6.764;2022-08-19T16:06:47;30.90;46.30
26503;DHT22;14177;51.520;6.764;2022-08-19T16:09:17;30.60;46.10
26503;DHT22;14177;51.520;6.764;2022-08-19T16:11:52;30.40;46.40
26503;DHT22;14177;51.520;6.764;2022-08-19T16:14:30;30.30;47.00
26503;DHT22;14177;51.520;6.764;2022-08-19T16:16:58;30.30;47.50
26503;DHT22;14177;51.520;6.764;2022-08-19T16:19:26;30.50;47.50
26503;DHT22;14177;51.520;6.764;2022-08-19T16:21:54;30.60;47.50
26503;DHT22;14177;51.520;6.764;2022-08-19T16:24:25;30.70;47.10
26503;DHT22;14177;51.520;6.764;2022-08-19T16:26:54;30.80;47.40